Time;durP1;ratioP1;P1;durP2;ratioP2;P2;SDS_P1;SDS_P2;PMS_P1;PMS_P2;Temp;Humidity;BMP_temperature;BMP_pressure;BME280_temperature;BME280_humidity;BME280_pressure;Samples;Min_cycle;Max_cycle;Signal;HPM_P1;HPM_P2
2021/07/13 00:03:08;;;;;;;7.78;6.40;;;;;;;0.01;0.00;59042.03;10317722;28;20074;-59
2021/07/13 00:08:08;;;;;;;13.25;6.82;;;;;;;0.01;0.00;59042.03;10318296;28;20059;-58
2021/07/13 00:13:07;;;;;;;9.32;6.82;;;;;;;0.01;0.00;59042.03;10318219;28;20470;-58
2021/07/13 00:18:09;;;;;;;8.65;7.68;;;;;;;0.01;0.00;59042.03;10317515;28;20078;-58
2021/07/13 00:23:08;;;;;;;11.73;7.10;;;;;;;0.01;0.00;59042.03;10318642;28;20053;-59
2021/07/13 00:28:07;;;;;;;13.02;7.97;;;;;;;0.01;0.00;59042.03;10318412;28;20072;-58
2021/07/13 00:33:07;;;;;;;8.40;7.60;;;;;;;0.01;0.00;59042.03;10318170;28;20044;-58
2021/07/13 00:38:06;;;;;;;8.82;6.65;;;;;;;0.01;0.00;59042.03;10317937;28;20075;-58
2021/07/13 00:43:05;;;;;;;8.73;7.03;;;;;;;0.01;0.00;59042.03;10317252;28;20095;-57
2021/07/13 00:48:06;;;;;;;7.45;6.75;;;;;;;0.01;0.00;59042.03;10316300;28;20080;-57
2021/07/13 00:53:06;;;;;;;10.50;7.38;;;;;;;0.01;0.00;59042.03;10300289;28;20526;-52
2021/07/13 00:58:05;;;;;;;12.00;7.03;;;;;;;0.01;0.00;59042.03;10316721;28;20049;-57
2021/07/13 01:03:06;;;;;;;11.02;7.32;;;;;;;0.01;0.00;59042.03;10317354;28;20036;-57
2021/07/13 01:08:29;;;;;;;11.23;7.57;;;;;;;0.01;0.00;59042.03;10297752;28;20055;-57
2021/07/13 01:13:33;;;;;;;11.10;7.82;;;;;;;0.01;0.00;59042.03;10317146;28;20190;-57
2021/07/13 01:18:37;;;;;;;8.35;7.03;;;;;;;0.01;0.00;59042.03;10316049;28;20040;-57
2021/07/13 01:23:55;;;;;;;8.90;8.02;;;;;;;0.01;0.00;59042.03;10316784;28;20040;-56
2021/07/13 01:29:01;;;;;;;8.82;7.25;;;;;;;0.01;0.00;59042.03;10316432;28;20052;-57
2021/07/13 01:34:04;;;;;;;8.65;7.13;;;;;;;0.01;0.00;59042.03;10315749;28;20488;-57
2021/07/13 01:39:05;;;;;;;12.13;7.33;;;;;;;0.01;0.00;59042.03;10316736;28;20482;-57
2021/07/13 01:44:06;;;;;;;9.38;7.13;;;;;;;0.01;0.00;59042.03;10315751;28;20052;-57
2021/07/13 01:49:06;;;;;;;10.50;8.32;;;;;;;0.01;0.00;59042.03;10315614;28;20460;-56
2021/07/13 01:54:08;;;;;;;8.30;7.35;;;;;;;0.01;0.00;59042.03;10315302;28;20084;-56
2021/07/13 01:59:11;;;;;;;8.90;7.10;;;;;;;0.01;0.00;59042.03;10315798;28;20087;-55
2021/07/13 02:04:11;;;;;;;10.00;7.40;;;;;;;0.01;0.00;59042.03;10316378;28;20049;-56
2021/07/13 02:09:11;;;;;;;11.75;7.50;;;;;;;0.01;0.00;59042.03;10315532;28;20699;-57
2021/07/13 02:14:12;;;;;;;10.38;7.15;;;;;;;0.01;0.00;59042.03;10316138;28;20087;-56
2021/07/13 02:19:12;;;;;;;13.35;7.60;;;;;;;0.01;0.00;59042.03;10315535;28;20083;-57
2021/07/13 02:24:11;;;;;;;9.50;7.70;;;;;;;0.01;0.00;59042.03;10315630;28;20048;-58
2021/07/13 02:29:17;;;;;;;8.63;7.75;;;;;;;0.01;0.00;59042.03;10314626;28;20032;-57
2021/07/13 02:34:19;;;;;;;14.90;8.10;;;;;;;0.01;0.00;59042.03;10319006;28;20044;-57
2021/07/13 02:39:20;;;;;;;10.70;8.10;;;;;;;0.01;0.00;59042.03;10321132;28;20529;-57
2021/07/13 02:44:22;;;;;;;9.18;8.27;;;;;;;0.01;0.00;59042.03;10321534;28;20052;-57
2021/07/13 02:49:23;;;;;;;9.70;7.70;;;;;;;0.01;0.00;59042.03;10321835;28;20057;-57
2021/07/13 02:54:24;;;;;;;8.98;8.02;;;;;;;0.01;0.00;59042.03;10321376;28;20084;-57
2021/07/13 02:59:27;;;;;;;9.88;8.40;;;;;;;0.01;0.00;59042.03;10321537;28;20052;-57
2021/07/13 03:04:26;;;;;;;10.45;8.65;;;;;;;0.01;0.00;59042.03;10319394;28;20068;-57
2021/07/13 03:09:25;;;;;;;9.63;8.10;;;;;;;0.01;0.00;59042.03;10319506;28;20067;-56
2021/07/13 03:14:28;;;;;;;11.55;8.55;;;;;;;0.01;0.00;59042.03;10320373;28;20083;-56
2021/07/13 03:19:26;;;;;;;12.60;7.65;;;;;;;0.01;0.00;59042.03;10320166;28;20072;-56
2021/07/13 03:24:27;;;;;;;9.85;8.00;;;;;;;0.01;0.00;59042.03;10319887;28;20076;-54
2021/07/13 03:29:27;;;;;;;11.38;7.85;;;;;;;0.01;0.00;59042.03;10314648;28;20501;-54
2021/07/13 03:34:27;;;;;;;9.23;8.13;;;;;;;0.01;0.00;59042.03;10312770;28;20463;-56
2021/07/13 03:39:27;;;;;;;13.75;7.93;;;;;;;0.01;0.00;59042.03;10275944;28;20099;-57
2021/07/13 03:44:27;;;;;;;8.48;7.63;;;;;;;0.01;0.00;59042.03;10290085;28;20091;-56
2021/07/13 03:49:27;;;;;;;11.43;8.80;;;;;;;0.01;0.00;59042.03;10319021;28;20053;-56
2021/07/13 03:54:26;;;;;;;10.55;8.43;;;;;;;0.01;0.00;59042.03;10319778;28;20076;-56
2021/07/13 03:59:25;;;;;;;8.60;7.80;;;;;;;0.01;0.00;59042.03;10318460;28;20055;-57
2021/07/13 04:04:26;;;;;;;8.95;8.10;;;;;;;0.01;0.00;59042.03;10296053;28;20084;-56
2021/07/13 04:09:24;;;;;;;11.68;9.90;;;;;;;0.01;0.00;59042.03;10314607;28;20455;-55
2021/07/13 04:14:23;;;;;;;11.10;9.77;;;;;;;0.01;0.00;59042.03;10314746;28;20083;-57
2021/07/13 04:19:22;;;;;;;12.88;11.60;;;;;;;0.01;0.00;59042.03;10316986;28;20041;-56
2021/07/13 04:24:22;;;;;;;10.10;9.10;;;;;;;0.01;0.00;59042.03;10317712;28;20055;-57
2021/07/13 04:29:21;;;;;;;10.13;9.13;;;;;;;0.01;0.00;59042.03;10318338;28;20287;-57
2021/07/13 04:34:19;;;;;;;13.90;9.07;;;;;;;0.01;0.00;59042.03;10316901;28;20080;-57
2021/07/13 04:39:18;;;;;;;24.33;21.88;;;;;;;0.01;0.00;59042.03;10317952;28;20077;-57
2021/07/13 04:44:18;;;;;;;21.35;14.85;;;;;;;0.01;0.00;59042.03;10317015;28;20057;-57
2021/07/13 04:49:17;;;;;;;12.77;11.38;;;;;;;0.01;0.00;59042.03;10316777;28;20465;-57
2021/07/13 04:54:17;;;;;;;11.20;9.38;;;;;;;0.01;0.00;59042.03;10316532;28;20515;-58
2021/07/13 04:59:15;;;;;;;15.95;10.10;;;;;;;0.01;0.00;59042.03;10315556;28;20495;-58
2021/07/13 05:04:15;;;;;;;16.38;10.30;;;;;;;0.01;0.00;59042.03;10317263;28;20051;-58
2021/07/13 05:09:15;;;;;;;16.67;11.05;;;;;;;0.01;0.00;59042.03;10316727;28;20048;-58
2021/07/13 05:14:13;;;;;;;20.50;10.73;;;;;;;0.01;0.00;59042.03;10316795;28;20071;-57
2021/07/13 05:19:14;;;;;;;21.70;10.82;;;;;;;0.01;0.00;59042.03;10316872;28;20040;-57
2021/07/13 05:24:14;;;;;;;16.13;10.63;;;;;;;0.01;0.00;59042.03;10315920;28;20487;-58
2021/07/13 05:29:13;;;;;;;22.48;10.60;;;;;;;0.01;0.00;59042.03;10316076;28;20041;-57
2021/07/13 05:34:12;;;;;;;11.43;10.43;;;;;;;0.01;0.00;59042.03;10316364;28;20044;-57
2021/07/13 05:39:11;;;;;;;16.42;10.35;;;;;;;0.01;0.00;59042.03;10315661;28;20071;-57
2021/07/13 05:44:12;;;;;;;17.25;10.63;;;;;;;0.01;0.00;59042.03;10315297;28;20052;-57
2021/07/13 05:49:10;;;;;;;27.23;13.18;;;;;;;0.01;0.00;59042.03;10314128;28;20040;-57
2021/07/13 05:54:09;;;;;;;37.22;11.70;;;;;;;0.01;0.00;59042.03;10315786;28;20044;-57
2021/07/13 05:59:08;;;;;;;28.23;14.60;;;;;;;0.01;0.00;59042.03;10315079;28;20060;-53
2021/07/13 06:04:08;;;;;;;16.92;11.25;;;;;;;0.01;0.00;59042.03;10307754;28;20053;-57
2021/07/13 06:09:07;;;;;;;34.13;11.98;;;;;;;0.01;0.00;59042.03;10319539;28;20059;-58
2021/07/13 06:14:05;;;;;;;25.20;12.25;;;;;;;0.01;0.00;59042.03;10322794;28;20053;-55
2021/07/13 06:19:07;;;;;;;18.27;10.25;;;;;;;0.01;0.00;59042.03;10321601;28;20447;-57
2021/07/13 06:24:06;;;;;;;13.90;10.70;;;;;;;0.01;0.00;59042.03;10323253;28;20142;-58
2021/07/13 06:29:05;;;;;;;19.75;11.27;;;;;;;0.01;0.00;59042.03;10322417;28;20063;-57
2021/07/13 06:34:04;;;;;;;16.83;10.95;;;;;;;0.01;0.00;59042.03;10322951;28;20044;-58
2021/07/13 06:39:04;;;;;;;16.13;11.93;;;;;;;0.01;0.00;59042.03;10322207;28;20082;-58
2021/07/13 06:44:03;;;;;;;21.65;12.13;;;;;;;0.01;0.00;59042.03;10319040;28;20057;-58
2021/07/13 06:49:02;;;;;;;17.77;12.52;;;;;;;0.01;0.00;59042.03;10280586;28;20434;-57
2021/07/13 06:54:01;;;;;;;14.43;11.07;;;;;;;0.01;0.00;59042.03;10281097;28;20487;-58
2021/07/13 06:59:01;;;;;;;15.77;11.50;;;;;;;0.01;0.00;59042.03;10280699;28;20087;-58
2021/07/13 07:04:00;;;;;;;19.48;9.93;;;;;;;0.01;0.00;59042.03;10280511;28;20430;-58
2021/07/13 07:08:58;;;;;;;12.27;9.70;;;;;;;0.01;0.00;59042.03;10280998;28;20041;-58
2021/07/13 07:13:57;;;;;;;11.48;8.85;;;;;;;0.01;0.00;59042.03;10280259;28;20049;-58
2021/07/13 07:18:57;;;;;;;12.35;9.48;;;;;;;0.01;0.00;59042.03;10279311;28;20085;-58
2021/07/13 07:23:56;;;;;;;13.57;9.98;;;;;;;0.01;0.00;59042.03;10280358;28;20047;-58
2021/07/13 07:28:55;;;;;;;13.63;12.18;;;;;;;0.01;0.00;59042.03;10279612;28;20526;-58
2021/07/13 07:33:54;;;;;;;19.80;13.88;;;;;;;0.01;0.00;59042.03;10279206;28;20049;-58
2021/07/13 07:38:54;;;;;;;16.30;11.52;;;;;;;0.01;0.00;59042.03;10279053;28;20506;-58
2021/07/13 07:43:53;;;;;;;13.65;11.10;;;;;;;0.01;0.00;59042.03;10278221;28;20045;-58
2021/07/13 07:48:52;;;;;;;15.10;9.93;;;;;;;0.01;0.00;59042.03;10278808;28;20049;-56
2021/07/13 07:53:51;;;;;;;13.93;10.88;;;;;;;0.01;0.00;59042.03;10278521;28;20529;-51
2021/07/13 07:58:51;;;;;;;14.60;11.13;;;;;;;0.01;0.00;59042.03;10277095;28;20087;-55
2021/07/13 08:03:51;;;;;;;14.23;11.90;;;;;;;0.01;0.00;59042.03;10246695;28;20487;-57
2021/07/13 08:08:49;;;;;;;16.80;11.98;;;;;;;0.01;0.00;59042.03;10237531;28;20045;-58
2021/07/13 08:13:48;;;;;;;17.42;11.18;;;;;;;0.01;0.00;59042.03;10237802;28;20064;-58
2021/07/13 08:18:49;;;;;;;14.25;11.25;;;;;;;0.01;0.00;59042.03;10236698;28;20092;-58
2021/07/13 08:24:05;;;;;;;12.70;9.98;;;;;;;0.01;0.00;59042.03;10237485;28;20434;-57
2021/07/13 08:29:04;;;;;;;11.10;9.95;;;;;;;0.01;0.00;59042.03;10235982;28;20163;-57
2021/07/13 08:34:04;;;;;;;10.38;9.32;;;;;;;0.01;0.00;59042.03;10235143;28;20042;-58
2021/07/13 08:39:03;;;;;;;13.35;10.30;;;;;;;0.01;0.00;59042.03;10236543;28;20080;-58
2021/07/13 08:44:02;;;;;;;11.57;10.38;;;;;;;0.01;0.00;59042.03;10236083;28;20049;-55
2021/07/13 08:49:07;;;;;;;11.65;10.20;;;;;;;0.01;0.00;59042.03;10236027;28;20049;-58
2021/07/13 08:54:06;;;;;;;19.25;10.57;;;;;;;0.01;0.00;59042.03;10235903;28;20074;-58
2021/07/13 08:59:06;;;;;;;11.25;9.13;;;;;;;0.01;0.00;59042.03;10236102;28;20077;-55
2021/07/13 09:04:09;;;;;;;10.25;9.25;;;;;;;0.01;0.00;59042.03;10235028;28;20510;-58
2021/07/13 09:09:12;;;;;;;19.23;10.67;;;;;;;0.01;0.00;59042.03;10235893;28;20048;-57
2021/07/13 09:14:11;;;;;;;19.73;12.20;;;;;;;0.01;0.00;59042.03;10231255;28;20525;-58
2021/07/13 09:19:15;;;;;;;28.92;11.50;;;;;;;0.01;0.00;59042.03;10214045;28;20091;-58
2021/07/13 09:24:16;;;;;;;17.20;10.32;;;;;;;0.01;0.00;59042.03;10233868;28;20084;-56
2021/07/13 09:29:44;;;;;;;12.30;8.93;;;;;;;0.01;0.00;59042.03;10234538;28;20543;-58
2021/07/13 09:34:48;;;;;;;11.90;9.80;;;;;;;0.01;0.00;59042.03;10189224;28;20155;-58
2021/07/13 09:39:56;;;;;;;14.13;9.48;;;;;;;0.01;0.00;59042.03;10235054;28;20091;-58
2021/07/13 09:45:15;;;;;;;13.23;9.15;;;;;;;0.01;0.00;59042.03;10240813;28;20050;-58
2021/07/13 09:50:32;;;;;;;11.50;9.07;;;;;;;0.01;0.00;59042.03;10241810;28;20053;-58
2021/07/13 09:55:31;;;;;;;10.88;8.50;;;;;;;0.01;0.00;59042.03;10241670;28;20152;-58
2021/07/13 10:00:30;;;;;;;13.45;9.15;;;;;;;0.01;0.00;59042.03;10241963;28;20076;-58
2021/07/13 10:05:31;;;;;;;16.40;9.30;;;;;;;0.01;0.00;59042.03;10242135;28;20053;-58
2021/07/13 10:10:31;;;;;;;14.23;9.57;;;;;;;0.01;0.00;59042.03;10241381;28;20088;-58
2021/07/13 10:15:34;;;;;;;12.02;9.70;;;;;;;0.01;0.00;59042.03;10241845;28;20041;-59
2021/07/13 10:20:35;;;;;;;11.52;8.48;;;;;;;0.01;0.00;59042.03;10241534;28;20077;-58
2021/07/13 10:25:36;;;;;;;13.95;8.80;;;;;;;0.01;0.00;59042.03;10241298;28;20530;-58
2021/07/13 10:30:38;;;;;;;13.60;9.50;;;;;;;0.01;0.00;59042.03;10241138;28;20045;-58
2021/07/13 10:35:39;;;;;;;11.60;7.90;;;;;;;0.01;0.00;59042.03;10240446;28;20049;-58
2021/07/13 10:40:40;;;;;;;7.10;6.40;;;;;;;0.01;0.00;59042.03;10240748;28;20075;-58
2021/07/13 10:45:42;;;;;;;8.77;6.82;;;;;;;0.01;0.00;59042.03;10240624;28;20068;-58
2021/07/13 10:50:48;;;;;;;13.70;7.53;;;;;;;0.01;0.00;59042.03;10240547;28;20041;-58
2021/07/13 10:55:55;;;;;;;9.63;8.15;;;;;;;0.01;0.00;59042.03;10238952;28;20056;-58
2021/07/13 11:01:08;;;;;;;12.68;8.50;;;;;;;0.01;0.00;59042.03;10239912;28;20103;-58
2021/07/13 11:06:10;;;;;;;9.25;8.10;;;;;;;0.01;0.00;59042.03;10239873;28;20041;-58
2021/07/13 11:11:09;;;;;;;18.90;7.90;;;;;;;0.01;0.00;59042.03;10239894;28;20077;-58
2021/07/13 11:16:09;;;;;;;11.25;8.63;;;;;;;0.01;0.00;59042.03;10239583;28;20046;-58
2021/07/13 11:21:15;;;;;;;10.60;8.55;;;;;;;0.01;0.00;59042.03;10238361;28;20089;-58
2021/07/13 11:26:16;;;;;;;12.23;8.48;;;;;;;0.01;0.00;59042.03;10238561;28;20507;-58
2021/07/13 11:31:20;;;;;;;12.98;7.68;;;;;;;0.01;0.00;59042.03;10238426;28;20053;-58
2021/07/13 11:36:27;;;;;;;14.38;7.38;;;;;;;0.01;0.00;59042.03;10239046;28;20079;-58
2021/07/13 11:41:27;;;;;;;7.72;6.57;;;;;;;0.01;0.00;59042.03;10220919;28;20041;-58
2021/07/13 11:46:28;;;;;;;11.45;7.00;;;;;;;0.01;0.00;59042.03;10220348;28;20087;-58
2021/07/13 11:51:29;;;;;;;10.85;7.22;;;;;;;0.01;0.00;59042.03;10238516;28;20403;-58
2021/07/13 11:56:29;;;;;;;9.73;8.18;;;;;;;0.01;0.00;59042.03;10237954;28;20080;-58
2021/07/13 12:01:30;;;;;;;13.80;8.23;;;;;;;0.01;0.00;59042.03;10237848;28;20518;-58
2021/07/13 12:06:31;;;;;;;13.45;7.60;;;;;;;0.01;0.00;59042.03;10237612;28;20069;-58
2021/07/13 12:11:32;;;;;;;12.73;8.70;;;;;;;0.01;0.00;59042.03;10237449;28;20053;-58
2021/07/13 12:16:33;;;;;;;18.98;8.20;;;;;;;0.01;0.00;59042.03;10237522;28;20446;-58
2021/07/13 12:21:34;;;;;;;13.35;7.97;;;;;;;0.01;0.00;59042.03;10235978;28;20448;-58
2021/07/13 12:26:34;;;;;;;14.52;11.25;;;;;;;0.01;0.00;59042.03;10236445;28;20052;-58
2021/07/13 12:31:35;;;;;;;12.00;8.48;;;;;;;0.01;0.00;59042.03;10236455;28;20072;-57
2021/07/13 12:36:36;;;;;;;16.13;8.35;;;;;;;0.01;0.00;59042.03;10236805;28;20053;-58
2021/07/13 12:41:35;;;;;;;11.95;7.38;;;;;;;0.01;0.00;59042.03;10236459;28;20069;-58
2021/07/13 12:46:34;;;;;;;13.55;7.57;;;;;;;0.01;0.00;59042.03;10235546;28;20430;-58
2021/07/13 12:51:36;;;;;;;10.00;7.03;;;;;;;0.01;0.00;59042.03;10235248;28;20046;-57
2021/07/13 12:56:36;;;;;;;10.23;7.10;;;;;;;0.01;0.00;59042.03;10235821;28;20426;-58
2021/07/13 13:01:36;;;;;;;10.13;7.57;;;;;;;0.01;0.00;59042.03;10235180;28;20525;-57
2021/07/13 13:06:37;;;;;;;14.20;7.30;;;;;;;0.01;0.00;59042.03;10235332;28;20071;-58
2021/07/13 13:11:38;;;;;;;9.00;7.20;;;;;;;0.01;0.00;59042.03;10235506;28;20056;-58
2021/07/13 13:16:39;;;;;;;9.77;7.78;;;;;;;0.01;0.00;59042.03;10234636;28;20096;-57
2021/07/13 13:21:41;;;;;;;9.02;7.47;;;;;;;0.01;0.00;59042.03;10235474;28;20069;-58
2021/07/13 13:26:42;;;;;;;12.23;7.50;;;;;;;0.01;0.00;59042.03;10235056;28;20145;-58
2021/07/13 13:31:41;;;;;;;13.25;7.55;;;;;;;0.01;0.00;59042.03;10235403;28;20046;-57
2021/07/13 13:36:42;;;;;;;10.60;6.97;;;;;;;0.01;0.00;59042.03;10235050;28;20041;-58
2021/07/13 13:41:41;;;;;;;16.67;7.78;;;;;;;0.01;0.00;59042.03;10234880;28;20482;-58
2021/07/13 13:46:40;;;;;;;11.30;8.27;;;;;;;0.01;0.00;59042.03;10218121;28;20058;-59
2021/07/13 13:51:40;;;;;;;16.02;9.40;;;;;;;0.01;0.00;59042.03;10234705;28;20419;-58
2021/07/13 13:56:39;;;;;;;8.63;6.82;;;;;;;0.01;0.00;59042.03;10234294;28;20072;-58
2021/07/13 14:01:38;;;;;;;10.18;7.07;;;;;;;0.01;0.00;59042.03;10235204;28;20183;-58
2021/07/13 14:06:37;;;;;;;8.85;7.13;;;;;;;0.01;0.00;59042.03;10234221;28;20052;-58
2021/07/13 14:11:37;;;;;;;13.35;6.72;;;;;;;0.01;0.00;59042.03;10234443;28;20053;-58
2021/07/13 14:16:36;;;;;;;10.45;9.38;;;;;;;0.01;0.00;59042.03;10234948;28;20069;-58
2021/07/13 14:21:35;;;;;;;7.85;6.70;;;;;;;0.01;0.00;59042.03;10234198;28;20088;-58
2021/07/13 14:26:33;;;;;;;10.35;6.97;;;;;;;0.01;0.00;59042.03;10234008;28;20442;-58
2021/07/13 14:31:33;;;;;;;15.65;7.57;;;;;;;0.01;0.00;59042.03;10239715;28;20050;-58
2021/07/13 14:36:32;;;;;;;10.80;6.68;;;;;;;0.01;0.00;59042.03;10241338;28;20053;-58
2021/07/13 14:41:31;;;;;;;8.85;7.95;;;;;;;0.01;0.00;59042.03;10241021;28;20081;-58
2021/07/13 14:46:30;;;;;;;10.48;7.05;;;;;;;0.01;0.00;59042.03;10241123;28;20057;-58
2021/07/13 14:51:30;;;;;;;7.45;6.82;;;;;;;0.01;0.00;59042.03;10240504;28;20065;-58
2021/07/13 14:56:29;;;;;;;9.48;7.47;;;;;;;0.01;0.00;59042.03;10240689;28;20045;-58
2021/07/13 15:01:27;;;;;;;12.82;7.38;;;;;;;0.01;0.00;59042.03;10240374;28;20069;-58
2021/07/13 15:06:26;;;;;;;9.30;6.30;;;;;;;0.01;0.00;59042.03;10239705;28;20056;-58
2021/07/13 15:11:26;;;;;;;10.95;8.30;;;;;;;0.01;0.00;59042.03;10239635;28;20100;-57
2021/07/13 15:16:25;;;;;;;10.70;7.75;;;;;;;0.01;0.00;59042.03;10239833;28;20045;-58
2021/07/13 15:21:24;;;;;;;7.60;6.32;;;;;;;0.01;0.00;59042.03;10239059;28;20083;-58
2021/07/13 15:26:31;;;;;;;8.25;6.60;;;;;;;0.01;0.00;59042.03;10238340;28;20053;-58
2021/07/13 15:31:30;;;;;;;11.68;6.68;;;;;;;0.01;0.00;59042.03;10238918;28;20041;-58
2021/07/13 15:36:29;;;;;;;10.13;6.80;;;;;;;0.01;0.00;59042.03;10238909;28;20044;-58
2021/07/13 15:41:28;;;;;;;7.40;6.70;;;;;;;0.01;0.00;59042.03;10238465;28;20073;-58
2021/07/13 15:46:29;;;;;;;8.23;7.43;;;;;;;0.01;0.00;59042.03;10238314;28;20080;-58
2021/07/13 15:51:28;;;;;;;9.35;7.05;;;;;;;0.01;0.00;59042.03;10237902;28;20077;-58
2021/07/13 15:56:27;;;;;;;6.90;6.25;;;;;;;0.01;0.00;59042.03;10237522;28;20045;-58
2021/07/13 16:01:25;;;;;;;11.00;7.18;;;;;;;0.01;0.00;59042.03;10238016;28;20468;-58
2021/07/13 16:06:26;;;;;;;7.38;6.57;;;;;;;0.01;0.00;59042.03;10237898;28;20074;-58
2021/07/13 16:11:24;;;;;;;9.63;6.57;;;;;;;0.01;0.00;59042.03;10237705;28;20081;-58
2021/07/13 16:16:23;;;;;;;9.43;6.90;;;;;;;0.01;0.00;59042.03;10237236;28;20052;-58
2021/07/13 16:21:22;;;;;;;12.32;9.05;;;;;;;0.01;0.00;59042.03;10236461;28;20079;-58
2021/07/13 16:26:22;;;;;;;14.13;7.47;;;;;;;0.01;0.00;59042.03;10237128;28;20484;-58
2021/07/13 16:31:21;;;;;;;7.25;6.55;;;;;;;0.01;0.00;59042.03;10236320;28;20045;-58
2021/07/13 16:36:20;;;;;;;8.27;7.47;;;;;;;0.01;0.00;59042.03;10236745;28;20046;-58
2021/07/13 16:41:19;;;;;;;9.15;7.03;;;;;;;0.01;0.00;59042.03;10236379;28;20108;-58
2021/07/13 16:46:19;;;;;;;13.57;8.38;;;;;;;0.01;0.00;59042.03;10236540;28;20069;-58
2021/07/13 16:51:18;;;;;;;13.45;7.25;;;;;;;0.01;0.00;59042.03;10235811;28;20073;-59
2021/07/13 16:56:16;;;;;;;11.50;8.40;;;;;;;0.01;0.00;59042.03;10235826;28;20045;-60
2021/07/13 17:01:15;;;;;;;13.40;8.50;;;;;;;0.01;0.00;59042.03;10235141;28;20092;-59
2021/07/13 17:06:17;;;;;;;12.70;8.13;;;;;;;0.01;0.00;59042.03;10235164;28;20046;-59
2021/07/13 17:11:16;;;;;;;12.95;9.15;;;;;;;0.01;0.00;59042.03;10235533;28;20049;-59
2021/07/13 17:16:14;;;;;;;11.90;8.75;;;;;;;0.01;0.00;59042.03;10235289;28;20041;-59
2021/07/13 17:21:15;;;;;;;23.90;14.18;;;;;;;0.01;0.00;59042.03;10234127;28;20076;-59
2021/07/13 17:26:13;;;;;;;12.77;10.57;;;;;;;0.01;0.00;59042.03;10234769;28;20495;-60
2021/07/13 17:31:12;;;;;;;17.98;10.30;;;;;;;0.01;0.00;59042.03;10234694;28;20518;-59
2021/07/13 17:36:13;;;;;;;21.08;12.48;;;;;;;0.01;0.00;59042.03;10235026;28;20500;-59
2021/07/13 17:41:13;;;;;;;18.17;8.82;;;;;;;0.01;0.00;59042.03;10215745;28;20057;-59
2021/07/13 17:46:11;;;;;;;15.23;8.55;;;;;;;0.01;0.00;59042.03;10233782;28;20056;-59
2021/07/13 17:51:10;;;;;;;25.52;10.60;;;;;;;0.01;0.00;59042.03;10233448;28;20042;-59
2021/07/13 17:56:12;;;;;;;13.40;10.25;;;;;;;0.01;0.00;59042.03;10262019;28;20073;-59
2021/07/13 18:01:12;;;;;;;12.35;11.00;;;;;;;0.01;0.00;59042.03;10274225;28;20076;-60
2021/07/13 18:06:12;;;;;;;11.15;8.93;;;;;;;0.01;0.00;59042.03;10262996;28;20071;-59
2021/07/13 18:11:11;;;;;;;23.63;11.40;;;;;;;0.01;0.00;59042.03;10281509;28;20393;-59
2021/07/13 18:16:10;;;;;;;10.43;8.38;;;;;;;0.01;0.00;59042.03;10277265;28;20068;-59
2021/07/13 18:21:10;;;;;;;10.43;7.88;;;;;;;0.01;0.00;59042.03;10271843;28;20092;-59
2021/07/13 18:26:09;;;;;;;12.30;8.25;;;;;;;0.01;0.00;59042.03;10276854;28;20060;-58
2021/07/13 18:31:08;;;;;;;8.43;7.28;;;;;;;0.01;0.00;59042.03;10271864;28;20079;-58
2021/07/13 18:36:07;;;;;;;13.10;8.07;;;;;;;0.01;0.00;59042.03;10273551;28;20065;-59
2021/07/13 18:41:07;;;;;;;14.80;8.00;;;;;;;0.01;0.00;59042.03;10278175;28;20071;-60
2021/07/13 18:46:06;;;;;;;9.07;7.57;;;;;;;0.01;0.00;59042.03;10297801;28;20053;-59
2021/07/13 18:51:07;;;;;;;13.80;7.97;;;;;;;0.01;0.00;59042.03;10312068;28;20075;-59
2021/07/13 18:56:07;;;;;;;9.57;7.70;;;;;;;0.01;0.00;59042.03;10304764;28;20060;-59
2021/07/13 19:01:06;;;;;;;13.13;8.23;;;;;;;0.01;0.00;59042.03;10297928;28;20494;-59
2021/07/13 19:06:05;;;;;;;8.88;7.82;;;;;;;0.01;0.00;59042.03;10304184;28;20545;-58
2021/07/13 19:11:04;;;;;;;8.40;7.60;;;;;;;0.01;0.00;59042.03;10313192;28;20071;-59
2021/07/13 19:16:05;;;;;;;10.75;8.13;;;;;;;0.01;0.00;59042.03;10309839;28;20068;-58
2021/07/13 19:21:04;;;;;;;13.63;8.13;;;;;;;0.01;0.00;59042.03;10309246;28;20072;-58
2021/07/13 19:26:02;;;;;;;10.63;8.35;;;;;;;0.01;0.00;59042.03;10300672;28;20036;-58
2021/07/13 19:31:01;;;;;;;10.07;7.97;;;;;;;0.01;0.00;59042.03;10302519;28;20157;-59
2021/07/13 19:41:12;;;;;;;10.07;7.68;;;;;;;0.01;0.00;59042.03;10298293;28;20083;-59
2021/07/13 19:46:10;;;;;;;10.65;8.48;;;;;;;0.01;0.00;59042.03;10277683;28;20117;-59
2021/07/13 19:51:10;;;;;;;13.32;7.78;;;;;;;0.01;0.00;59042.03;10260611;28;20076;-59
2021/07/13 19:56:09;;;;;;;10.27;7.95;;;;;;;0.01;0.00;59042.03;10258972;28;20422;-59
2021/07/13 20:01:08;;;;;;;20.35;16.13;;;;;;;0.01;0.00;59042.03;10257765;28;20068;-59
2021/07/13 20:06:07;;;;;;;14.40;7.60;;;;;;;0.01;0.00;59042.03;10259332;28;20084;-59
2021/07/13 20:11:07;;;;;;;16.38;8.45;;;;;;;0.01;0.00;59042.03;10261290;28;20107;-59
2021/07/13 20:16:06;;;;;;;14.55;8.23;;;;;;;0.01;0.00;59042.03;10255897;28;20069;-59
2021/07/13 20:21:05;;;;;;;10.10;7.68;;;;;;;0.01;0.00;59042.03;10265054;28;20466;-59
2021/07/13 20:26:03;;;;;;;12.35;7.95;;;;;;;0.01;0.00;59042.03;10259835;28;20042;-59
2021/07/13 20:31:04;;;;;;;9.00;7.20;;;;;;;0.01;0.00;59042.03;10254488;28;20501;-58
2021/07/13 20:36:04;;;;;;;12.93;7.32;;;;;;;0.01;0.00;59042.03;10236756;28;20045;-59
2021/07/13 20:41:02;;;;;;;8.60;7.32;;;;;;;0.01;0.00;59042.03;10262147;28;20076;-59
2021/07/13 20:46:01;;;;;;;8.88;6.68;;;;;;;0.01;0.00;59042.03;10252881;28;20053;-58
2021/07/13 20:51:02;;;;;;;7.40;6.70;;;;;;;0.01;0.00;59042.03;10254072;28;20481;-58
2021/07/13 20:56:01;;;;;;;7.03;6.20;;;;;;;0.01;0.00;59042.03;10255123;28;20068;-59
2021/07/13 21:01:00;;;;;;;9.73;6.88;;;;;;;0.01;0.00;59042.03;10255210;28;20081;-59
2021/07/13 21:05:58;;;;;;;9.27;7.20;;;;;;;0.01;0.00;59042.03;10235735;28;20044;-58
2021/07/13 21:10:58;;;;;;;13.93;6.80;;;;;;;0.01;0.00;59042.03;10255238;28;20048;-59
2021/07/13 21:15:57;;;;;;;15.75;7.22;;;;;;;0.01;0.00;59042.03;10253651;28;20068;-59
2021/07/13 21:20:56;;;;;;;9.55;6.70;;;;;;;0.01;0.00;59042.03;10254310;28;20073;-59
2021/07/13 21:25:55;;;;;;;9.60;7.55;;;;;;;0.01;0.00;59042.03;10254274;28;20068;-59
2021/07/13 21:30:55;;;;;;;7.78;6.97;;;;;;;0.01;0.00;59042.03;10254211;28;20068;-58
2021/07/13 21:35:53;;;;;;;10.40;7.30;;;;;;;0.01;0.00;59042.03;10254112;28;20041;-58
2021/07/13 21:40:53;;;;;;;15.52;8.00;;;;;;;0.01;0.00;59042.03;10260341;28;20065;-59
2021/07/13 21:45:52;;;;;;;10.98;6.88;;;;;;;0.01;0.00;59042.03;10262589;28;20067;-58
2021/07/13 21:50:52;;;;;;;9.95;7.25;;;;;;;0.01;0.00;59042.03;10261678;28;20045;-58
2021/07/13 21:55:51;;;;;;;11.18;7.70;;;;;;;0.01;0.00;59042.03;10262908;28;20478;-58
2021/07/13 22:00:50;;;;;;;13.50;7.35;;;;;;;0.01;0.00;59042.03;10260715;28;20293;-59
2021/07/13 22:05:48;;;;;;;8.40;7.15;;;;;;;0.01;0.00;59042.03;10262222;28;20040;-59
2021/07/13 22:10:49;;;;;;;9.48;7.05;;;;;;;0.01;0.00;59042.03;10259843;28;20475;-58
2021/07/13 22:15:48;;;;;;;10.75;7.43;;;;;;;0.01;0.00;59042.03;10260078;28;20080;-59
2021/07/13 22:20:47;;;;;;;14.98;7.75;;;;;;;0.01;0.00;59042.03;10259995;28;20064;-58
2021/07/13 22:25:46;;;;;;;10.65;7.00;;;;;;;0.01;0.00;59042.03;10259297;28;20473;-59
2021/07/13 22:30:47;;;;;;;9.18;6.28;;;;;;;0.01;0.00;59042.03;10259928;28;20079;-59
2021/07/13 22:35:46;;;;;;;10.23;6.88;;;;;;;0.01;0.00;59042.03;10258751;28;20041;-59
2021/07/13 22:40:45;;;;;;;10.43;6.78;;;;;;;0.01;0.00;59042.03;10258899;28;20419;-59
2021/07/13 22:45:44;;;;;;;12.05;7.13;;;;;;;0.01;0.00;59042.03;10255700;28;20087;-59
2021/07/13 22:50:45;;;;;;;8.98;8.02;;;;;;;0.01;0.00;59042.03;10259760;28;20037;-59
2021/07/13 22:55:43;;;;;;;11.18;7.50;;;;;;;0.01;0.00;59042.03;10259676;28;20041;-58
2021/07/13 23:00:42;;;;;;;9.77;7.80;;;;;;;0.01;0.00;59042.03;10258193;28;20059;-59
2021/07/13 23:05:41;;;;;;;12.30;10.18;;;;;;;0.01;0.00;59042.03;10260150;28;20080;-59
2021/07/13 23:10:41;;;;;;;9.93;8.77;;;;;;;0.01;0.00;59042.03;10258616;28;20044;-59
2021/07/13 23:15:43;;;;;;;8.82;7.90;;;;;;;0.01;0.00;59042.03;10259065;28;20072;-59
2021/07/13 23:20:42;;;;;;;15.38;9.00;;;;;;;0.01;0.00;59042.03;10257265;28;20064;-59
2021/07/13 23:25:42;;;;;;;12.95;9.45;;;;;;;0.01;0.00;59042.03;10259691;28;20077;-59
2021/07/13 23:30:41;;;;;;;14.45;10.02;;;;;;;0.01;0.00;59042.03;10258277;28;20083;-59
2021/07/13 23:35:40;;;;;;;9.77;8.77;;;;;;;0.01;0.00;59042.03;10258678;28;20049;-59
2021/07/13 23:40:39;;;;;;;12.48;8.85;;;;;;;0.01;0.00;59042.03;10257287;28;20041;-59